createdAt,value
2022-08-01T00:00:10.458Z,97278.41
2022-08-01T00:02:39.427Z,97280.78
2022-08-01T00:05:08.963Z,97265.13
2022-08-01T00:07:37.511Z,97272.44
2022-08-01T00:10:07.443Z,97262.78
2022-08-01T00:12:35.793Z,97265.91
2022-08-01T00:15:06.729Z,97269.03
2022-08-01T00:17:35.277Z,97252.09
2022-08-01T00:20:04.861Z,97254.44
2022-08-01T00:22:33.885Z,97254.72
2022-08-01T00:25:02.440Z,97259.16
2022-08-01T00:27:30.777Z,97248.69
2022-08-01T00:30:12.817Z,97246.63
2022-08-01T00:32:43.707Z,97246.63
2022-08-01T00:35:12.318Z,97244.81
2022-08-01T00:37:40.676Z,97238.81
2022-08-01T00:40:09.413Z,97241.41
2022-08-01T00:42:42.926Z,97234.13
2022-08-01T00:45:12.890Z,97225.53
2022-08-01T00:47:41.255Z,97224.97
2022-08-01T00:50:10.346Z,97222.88
2022-08-01T00:52:38.791Z,97223.13
2022-08-01T00:55:07.478Z,97216.91
2022-08-01T00:58:03.575Z,97212.97
2022-08-01T01:00:27.096Z,97213.53
2022-08-01T01:02:55.983Z,97211.97
2022-08-01T01:05:24.402Z,97200.22
2022-08-01T01:08:00.925Z,97191.59
2022-08-01T01:10:48.103Z,97200.97
2022-08-01T01:13:51.210Z,97190.78
2022-08-01T01:16:20.703Z,97196.84
2022-08-01T01:18:56.653Z,97184.06
2022-08-01T01:21:43.774Z,97184.34
2022-08-01T01:24:41.293Z,97184.06
2022-08-01T01:27:26.077Z,97180.69
2022-08-01T01:29:59.675Z,97188.53
2022-08-01T01:32:35.277Z,97182.56
2022-08-01T01:35:09.415Z,97184.34
2022-08-01T01:37:40.006Z,97185.38
2022-08-01T01:40:09.185Z,97181.78
2022-08-01T01:42:37.465Z,97184.88
2022-08-01T01:45:06.481Z,97186.38
2022-08-01T01:47:34.952Z,97183.28
2022-08-01T01:50:04.173Z,97183.81
2022-08-01T01:52:32.492Z,97174.97
2022-08-01T01:55:00.911Z,97178.91
2022-08-01T01:57:29.502Z,97179.63
2022-08-01T01:59:57.816Z,97184.34
2022-08-01T02:02:26.162Z,97170.66
2022-08-01T02:04:54.497Z,97167.38
2022-08-01T02:07:23.986Z,97173.31
2022-08-01T02:09:52.788Z,97164.72
2022-08-01T02:12:22.866Z,97168.16
2022-08-01T02:14:51.754Z,97167.31
2022-08-01T02:17:20.500Z,97160.25
2022-08-01T02:19:48.880Z,97155.59
2022-08-01T02:22:33.925Z,97152.25
2022-08-01T02:25:12.608Z,97166.81
2022-08-01T02:28:07.780Z,97168.72
2022-08-01T02:30:37.877Z,97154.91
2022-08-01T02:33:23.601Z,97149.84
2022-08-01T02:36:31.667Z,97161.19
2022-08-01T02:38:43.797Z,97163.28
2022-08-01T02:41:14.494Z,97162.25
2022-08-01T02:43:45.108Z,97157.03
2022-08-01T02:46:24.132Z,97159.38
2022-08-01T02:48:54.239Z,97146.59
2022-08-01T02:51:23.458Z,97150.03
2022-08-01T02:53:51.896Z,97142.22
2022-08-01T02:56:20.554Z,97152.34
2022-08-01T02:58:48.920Z,97146.09
2022-08-01T03:01:19.990Z,97146.09
2022-08-01T03:03:48.352Z,97151.28
2022-08-01T03:06:16.943Z,97153.47
2022-08-01T03:08:45.277Z,97152.28
2022-08-01T03:11:13.726Z,97151.69
2022-08-01T03:13:43.087Z,97146.13
2022-08-01T03:16:12.239Z,97147.00
2022-08-01T03:18:40.745Z,97143.88
2022-08-01T03:21:09.084Z,97145.94
2022-08-01T03:23:38.369Z,97152.00
2022-08-01T03:26:06.828Z,97151.22
2022-08-01T03:28:35.237Z,97148.13
2022-08-01T03:31:03.794Z,97156.63
2022-08-01T03:33:32.222Z,97151.84
2022-08-01T03:36:00.541Z,97154.63
2022-08-01T03:38:28.879Z,97151.72
2022-08-01T03:41:00.216Z,97151.19
2022-08-01T03:43:42.743Z,97152.50
2022-08-01T03:46:14.775Z,97159.59
2022-08-01T03:48:45.670Z,97151.78
2022-08-01T03:51:14.100Z,97151.28
2022-08-01T03:53:42.979Z,97149.53
2022-08-01T03:56:11.361Z,97150.63
2022-08-01T03:58:43.060Z,97153.75
2022-08-01T04:01:15.634Z,97161.84
2022-08-01T04:03:45.179Z,97152.25
2022-08-01T04:06:15.236Z,97156.69
2022-08-01T04:08:43.720Z,97154.13
2022-08-01T04:11:12.230Z,97154.13
2022-08-01T04:13:40.655Z,97154.16
2022-08-01T04:16:12.851Z,97148.97
2022-08-01T04:18:41.344Z,97160.38
2022-08-01T04:21:09.620Z,97153.59
2022-08-01T04:23:38.094Z,97157.22
2022-08-01T04:26:06.509Z,97153.28
2022-08-01T04:28:36.243Z,97144.56
2022-08-01T04:31:06.073Z,97150.78
2022-08-01T04:33:37.736Z,97136.28
2022-08-01T04:36:06.344Z,97147.31
2022-08-01T04:38:37.982Z,97154.03
2022-08-01T04:41:09.491Z,97150.66
2022-08-01T04:43:38.674Z,97154.66
2022-08-01T04:46:08.036Z,97152.16
2022-08-01T04:48:39.010Z,97154.50
2022-08-01T04:51:18.796Z,97146.88
2022-08-01T04:53:47.150Z,97143.53
2022-08-01T04:56:16.133Z,97137.97
2022-08-01T04:58:44.580Z,97138.03
2022-08-01T05:01:13.205Z,97134.47
2022-08-01T05:03:41.730Z,97136.69
2022-08-01T05:06:10.336Z,97130.22
2022-08-01T05:08:38.709Z,97125.19
2022-08-01T05:11:08.196Z,97129.88
2022-08-01T05:13:37.095Z,97116.16
2022-08-01T05:16:05.717Z,97112.88
2022-08-01T05:18:34.098Z,97120.31
2022-08-01T05:21:03.491Z,97114.13
2022-08-01T05:23:43.078Z,97117.03
2022-08-01T05:26:13.180Z,97117.56
2022-08-01T05:28:43.637Z,97122.28
2022-08-01T05:31:12.045Z,97125.16
2022-08-01T05:33:40.395Z,97114.47
2022-08-01T05:36:08.786Z,97118.94
2022-08-01T05:38:37.130Z,97119.97
2022-08-01T05:41:05.631Z,97123.06
2022-08-01T05:43:33.930Z,97120.72
2022-08-01T05:46:02.839Z,97113.47
2022-08-01T05:48:31.597Z,97124.38
2022-08-01T05:51:00.135Z,97126.19
2022-08-01T05:53:28.626Z,97114.75
2022-08-01T05:55:57.043Z,97116.19
2022-08-01T05:58:25.604Z,97121.22
2022-08-01T06:00:53.953Z,97133.97
2022-08-01T06:03:22.586Z,97114.31
2022-08-01T06:05:52.855Z,97115.22
2022-08-01T06:08:21.291Z,97116.19
2022-08-01T06:10:49.736Z,97116.88
2022-08-01T06:13:19.423Z,97107.38
2022-08-01T06:15:47.793Z,97113.38
2022-08-01T06:18:16.348Z,97119.56
2022-08-01T06:20:44.874Z,97108.88
2022-08-01T06:23:31.225Z,97112.69
2022-08-01T06:26:01.508Z,97105.06
2022-08-01T06:28:29.985Z,97104.25
2022-08-01T06:31:00.364Z,97115.38
2022-08-01T06:33:28.912Z,97119.94
2022-08-01T06:35:57.321Z,97111.44
2022-08-01T06:38:25.807Z,97111.06
2022-08-01T06:40:54.207Z,97105.66
2022-08-01T06:43:23.210Z,97115.94
2022-08-01T06:45:51.821Z,97122.75
2022-08-01T06:48:20.486Z,97121.75
2022-08-01T06:50:49.460Z,97126.75
2022-08-01T06:53:17.900Z,97121.22
2022-08-01T06:55:46.291Z,97102.94
2022-08-01T06:58:14.645Z,97106.53
2022-08-01T07:00:43.581Z,97110.28
2022-08-01T07:03:11.991Z,97105.03
2022-08-01T07:05:40.376Z,97103.06
